createdAt,value
2023-01-13T00:00:49.991Z,100175.58
2023-01-13T00:03:17.017Z,100172.83
2023-01-13T00:05:44.091Z,100172.29
2023-01-13T00:08:10.775Z,100178.79
2023-01-13T00:10:37.724Z,100180.83
2023-01-13T00:13:04.861Z,100172.17
2023-01-13T00:15:32.441Z,100175.22
2023-01-13T00:17:59.487Z,100181.38
2023-01-13T00:20:26.313Z,100184.48
2023-01-13T00:22:54.743Z,100183.46
2023-01-13T00:25:25.680Z,100187.77
2023-01-13T00:27:52.580Z,100190.87
2023-01-13T00:30:20.322Z,100189.83
2023-01-13T00:32:46.978Z,100184.83
2023-01-13T00:35:13.911Z,100187.60
2023-01-13T00:37:40.610Z,100190.17
2023-01-13T00:40:08.241Z,100187.39
2023-01-13T00:42:54.149Z,100182.21
2023-01-13T00:45:20.760Z,100176.33
2023-01-13T00:47:47.454Z,100172.20
2023-01-13T00:50:14.830Z,100173.69
2023-01-13T00:52:42.338Z,100172.92
2023-01-13T00:55:09.144Z,100174.95
2023-01-13T00:57:36.649Z,100173.54
2023-01-13T01:00:04.185Z,100171.90
2023-01-13T01:02:31.174Z,100162.55
2023-01-13T01:05:00.393Z,100158.88
2023-01-13T01:07:27.078Z,100156.63
2023-01-13T01:09:53.859Z,100156.47
2023-01-13T01:12:20.633Z,100157.52
2023-01-13T01:14:47.338Z,100154.07
2023-01-13T01:17:14.816Z,100151.80
2023-01-13T01:19:41.743Z,100146.73
2023-01-13T01:22:08.441Z,100149.23
2023-01-13T01:24:36.180Z,100145.62
2023-01-13T01:27:04.371Z,100141.45
2023-01-13T01:29:31.581Z,100139.31
2023-01-13T01:31:58.717Z,100134.77
2023-01-13T01:34:25.367Z,100138.35
2023-01-13T01:36:51.959Z,100132.97
2023-01-13T01:39:18.634Z,100133.48
2023-01-13T01:42:05.257Z,100130.36
2023-01-13T01:44:41.851Z,100130.55
2023-01-13T01:47:09.948Z,100129.70
2023-01-13T01:49:37.183Z,100129.36
2023-01-13T01:52:08.053Z,100122.81
2023-01-13T01:55:23.516Z,100121.73
2023-01-13T01:58:05.272Z,100123.02
2023-01-13T02:00:32.524Z,100124.17
2023-01-13T02:02:59.234Z,100123.64
2023-01-13T02:05:26.161Z,100121.39
2023-01-13T02:07:55.266Z,100119.84
2023-01-13T02:10:23.139Z,100116.92
2023-01-13T02:12:49.858Z,100113.65
2023-01-13T02:15:33.520Z,100116.40
2023-01-13T02:18:11.647Z,100118.14
2023-01-13T02:20:51.754Z,100117.45
2023-01-13T02:23:59.339Z,100118.11
2023-01-13T02:26:50.685Z,100118.23
2023-01-13T02:30:14.790Z,100117.27
2023-01-13T02:32:46.282Z,100115.88
2023-01-13T02:35:14.263Z,100111.75
2023-01-13T02:37:42.578Z,100106.56
2023-01-13T02:40:34.360Z,100106.23
2023-01-13T02:43:24.483Z,100104.29
2023-01-13T02:46:01.205Z,100099.95
2023-01-13T02:48:28.002Z,100098.08
2023-01-13T02:51:04.407Z,100102.02
2023-01-13T02:53:34.061Z,100093.79
2023-01-13T02:56:01.821Z,100095.38
2023-01-13T02:58:29.221Z,100095.53
2023-01-13T03:00:56.208Z,100093.60
2023-01-13T03:03:23.298Z,100095.30
2023-01-13T03:05:52.935Z,100097.06
2023-01-13T03:08:28.084Z,100091.23
2023-01-13T03:11:05.411Z,100088.95
2023-01-13T03:13:41.564Z,100091.52
2023-01-13T03:16:28.838Z,100092.79
2023-01-13T03:18:55.474Z,100085.04
2023-01-13T03:21:34.931Z,100087.84
2023-01-13T03:24:25.292Z,100089.27
2023-01-13T03:27:08.789Z,100090.80
2023-01-13T03:29:38.082Z,100091.30
2023-01-13T03:32:32.296Z,100091.29
2023-01-13T03:35:14.406Z,100095.08
2023-01-13T03:37:43.371Z,100096.79
2023-01-13T03:40:21.481Z,100098.69
2023-01-13T03:43:11.667Z,100094.73
2023-01-13T03:45:38.829Z,100089.39
2023-01-13T03:48:08.375Z,100088.74
2023-01-13T03:50:53.318Z,100085.30
2023-01-13T03:53:27.478Z,100087.23
2023-01-13T03:55:58.267Z,100089.64
2023-01-13T03:58:33.223Z,100091.86
2023-01-13T04:01:16.605Z,100092.18
2023-01-13T04:03:59.968Z,100092.15
2023-01-13T04:06:37.711Z,100089.75
2023-01-13T04:09:33.624Z,100086.67
2023-01-13T04:12:06.832Z,100085.67
2023-01-13T04:14:33.423Z,100085.87
2023-01-13T04:17:00.324Z,100086.23
2023-01-13T04:19:26.913Z,100089.83
2023-01-13T04:21:53.673Z,100088.42
2023-01-13T04:24:20.236Z,100088.76
2023-01-13T04:26:46.843Z,100091.85
2023-01-13T04:29:15.519Z,100091.92
2023-01-13T04:31:42.352Z,100093.52
2023-01-13T04:34:12.043Z,100095.41
2023-01-13T04:36:38.711Z,100095.89
2023-01-13T04:39:05.263Z,100094.15
2023-01-13T04:41:52.708Z,100093.98
2023-01-13T04:44:19.308Z,100094.73
2023-01-13T04:46:46.026Z,100095.42
2023-01-13T04:49:12.833Z,100093.98
2023-01-13T04:51:41.629Z,100093.30
2023-01-13T04:54:10.598Z,100088.63
2023-01-13T04:56:37.075Z,100088.91
2023-01-13T04:59:03.655Z,100093.65
2023-01-13T05:01:30.274Z,100094.48
2023-01-13T05:03:57.099Z,100098.96
2023-01-13T05:06:23.662Z,100095.05
2023-01-13T05:08:50.499Z,100097.84
2023-01-13T05:11:36.136Z,100097.50
2023-01-13T05:14:21.586Z,100104.23
2023-01-13T05:16:59.458Z,100110.92
2023-01-13T05:19:36.323Z,100108.80
2023-01-13T05:22:21.940Z,100108.16
2023-01-13T05:25:08.741Z,100110.80
2023-01-13T05:27:36.088Z,100108.71
2023-01-13T05:30:03.537Z,100109.36
2023-01-13T07:13:50.010Z,100119.61
2023-01-13T07:16:16.940Z,100124.62
2023-01-13T07:18:46.390Z,100123.62
2023-01-13T07:21:18.172Z,100130.88
2023-01-13T07:23:45.758Z,100130.67
2023-01-13T07:26:12.744Z,100134.59
2023-01-13T07:28:39.714Z,100132.69
2023-01-13T07:31:15.625Z,100136.84
2023-01-13T07:33:42.462Z,100130.70
2023-01-13T07:36:09.206Z,100131.98
2023-01-13T07:38:35.942Z,100130.33
2023-01-13T07:41:28.682Z,100130.23
2023-01-13T07:43:55.343Z,100129.80
2023-01-13T07:46:22.232Z,100133.83
2023-01-13T07:48:49.047Z,100133.21
2023-01-13T07:51:16.029Z,100134.02
2023-01-13T07:53:42.692Z,100134.47
2023-01-13T07:56:09.964Z,100131.05
2023-01-13T07:58:36.999Z,100137.44
2023-01-13T08:04:58.066Z,100138.39
2023-01-13T08:07:24.866Z,100133.09
2023-01-13T08:09:51.616Z,100129.02
2023-01-13T08:12:37.296Z,100136.58
2023-01-13T08:18:17.793Z,100128.02
2023-01-13T08:20:46.376Z,100126.29
2023-01-13T08:23:13.261Z,100126.89
2023-01-13T08:25:40.578Z,100127.94
2023-01-13T08:28:10.322Z,100126.56
2023-01-13T08:30:41.809Z,100121.72
2023-01-13T08:33:13.454Z,100115.02
2023-01-13T08:35:40.789Z,100115.74
2023-01-13T08:38:10.996Z,100113.48
2023-01-13T08:40:42.301Z,100115.06
2023-01-13T08:43:09.323Z,100119.42
2023-01-13T08:45:36.372Z,100121.17
2023-01-13T08:48:03.568Z,100117.89
2023-01-13T08:50:33.840Z,100118.58
2023-01-13T08:53:01.032Z,100121.90
2023-01-13T08:55:27.917Z,100114.79
2023-01-13T08:58:03.410Z,100116.06
2023-01-13T09:00:43.351Z,100111.12
2023-01-13T09:03:10.071Z,100105.85
2023-01-13T09:05:37.703Z,100095.83
2023-01-13T09:08:04.713Z,100092.23
2023-01-13T09:10:32.006Z,100088.64
2023-01-13T09:13:14.157Z,100091.61
2023-01-13T09:15:42.729Z,100089.81
2023-01-13T09:18:09.594Z,100092.92
2023-01-13T09:20:36.430Z,100089.48
2023-01-13T09:23:03.538Z,100091.02
2023-01-13T09:25:30.873Z,100091.85
2023-01-13T09:27:57.982Z,100089.61
2023-01-13T09:30:28.105Z,100088.49
2023-01-13T09:33:19.069Z,100091.95
2023-01-13T09:35:47.332Z,100095.41
2023-01-13T09:38:16.626Z,100098.00
2023-01-13T09:40:44.105Z,100096.52
2023-01-13T09:43:37.190Z,100094.92
2023-01-13T09:46:38.253Z,100094.24
2023-01-13T09:49:05.047Z,100088.21
2023-01-13T09:51:36.136Z,100084.34
2023-01-13T09:54:17.775Z,100079.61
2023-01-13T09:56:44.773Z,100077.33
2023-01-13T09:59:12.386Z,100069.63
2023-01-13T10:01:43.436Z,100074.06
2023-01-13T10:04:12.126Z,100073.27
2023-01-13T10:06:42.272Z,100066.06
2023-01-13T10:09:15.432Z,100064.66
2023-01-13T10:12:01.686Z,100067.12
2023-01-13T10:14:36.864Z,100061.36
2023-01-13T10:17:43.512Z,100059.77
2023-01-13T10:20:31.980Z,100061.61
2023-01-13T10:23:05.363Z,100058.89
2023-01-13T10:25:48.457Z,100055.80
2023-01-13T10:28:19.194Z,100055.25
2023-01-13T10:30:47.297Z,100054.73
2023-01-13T10:33:28.135Z,100052.66
2023-01-13T10:36:09.978Z,100055.11
2023-01-13T10:38:37.755Z,100048.71
2023-01-13T10:41:10.475Z,100043.48
2023-01-13T10:43:37.512Z,100045.17
2023-01-13T10:46:06.435Z,100041.98
2023-01-13T10:48:34.142Z,100042.87
2023-01-13T10:51:14.587Z,100040.06
2023-01-13T10:54:15.239Z,100036.98
2023-01-13T10:56:45.293Z,100042.12
2023-01-13T10:59:28.836Z,100043.55
2023-01-13T11:02:27.074Z,100038.90
2023-01-13T11:04:54.896Z,100040.05
2023-01-13T11:07:58.322Z,100043.56
2023-01-13T11:10:27.512Z,100042.02
2023-01-13T11:12:57.328Z,100043.48
2023-01-13T11:15:34.125Z,100036.04
2023-01-13T11:18:06.354Z,100034.84
2023-01-13T11:20:37.519Z,100034.52
2023-01-13T11:23:16.022Z,100032.58
2023-01-13T11:25:44.845Z,100033.75
2023-01-13T11:28:36.133Z,100030.41
2023-01-13T11:31:48.808Z,100031.58
2023-01-13T11:34:26.556Z,100026.64
2023-01-13T11:36:55.231Z,100029.17
2023-01-13T11:39:47.971Z,100032.90
2023-01-13T11:42:26.095Z,100036.95
2023-01-13T11:45:28.119Z,100033.02
2023-01-13T11:47:58.877Z,100025.16
2023-01-13T11:50:42.090Z,100026.70
2023-01-13T11:53:34.742Z,100022.59
2023-01-13T11:56:14.310Z,100024.04
2023-01-13T11:58:59.870Z,100026.16
2023-01-13T12:01:35.562Z,100030.98
2023-01-13T12:04:41.357Z,100030.12
2023-01-13T12:07:17.945Z,100031.71
2023-01-13T12:10:13.070Z,100031.90
2023-01-13T12:12:52.976Z,100029.82
2023-01-13T12:15:35.925Z,100031.85
2023-01-13T12:18:36.874Z,100038.44
2023-01-13T12:21:28.376Z,100040.95
2023-01-13T12:24:15.948Z,100041.79
2023-01-13T12:27:04.575Z,100036.38
2023-01-13T12:29:36.356Z,100039.34
2023-01-13T12:32:10.470Z,100038.12
2023-01-13T12:34:45.822Z,100036.23
2023-01-13T12:37:43.507Z,100040.09
2023-01-13T12:40:34.301Z,100037.41
2023-01-13T12:43:32.086Z,100028.30
2023-01-13T12:46:26.217Z,100033.29
2023-01-13T12:49:00.152Z,100022.58
2023-01-13T12:51:42.961Z,100028.41
2023-01-13T12:54:30.322Z,100030.30
2023-01-13T12:56:58.034Z,100025.52
2023-01-13T13:16:25.717Z,100033.03
2023-01-13T13:18:54.359Z,100033.55
2023-01-13T13:21:21.382Z,100030.16
2023-01-13T13:23:54.227Z,100032.23
2023-01-13T13:26:30.157Z,100035.44
2023-01-13T13:29:25.983Z,100036.59
2023-01-13T13:32:13.475Z,100041.43
2023-01-13T13:45:40.607Z,100043.34
2023-01-13T13:48:24.606Z,100044.31
2023-01-13T13:53:59.638Z,100039.38
2023-01-13T13:56:27.815Z,100041.50
2023-01-13T13:58:55.159Z,100041.44
2023-01-13T14:01:25.703Z,100041.55
2023-01-13T14:06:58.010Z,100043.31
2023-01-13T14:09:26.410Z,100040.95
2023-01-13T14:12:02.348Z,100043.10
2023-01-13T14:14:29.241Z,100042.36
2023-01-13T14:16:58.749Z,100043.54
2023-01-13T14:19:26.811Z,100035.23
2023-01-13T14:21:53.590Z,100027.84
2023-01-13T14:24:22.487Z,100028.02
2023-01-13T14:26:53.226Z,100027.67
2023-01-13T14:29:23.053Z,100032.07
2023-01-13T14:31:50.464Z,100033.64
2023-01-13T14:34:32.305Z,100034.33
2023-01-13T14:37:00.794Z,100033.48
2023-01-13T14:39:37.613Z,100027.33
2023-01-13T14:42:11.843Z,100024.17
2023-01-13T14:46:17.786Z,100023.92
2023-01-13T14:48:47.296Z,100024.16
2023-01-13T14:51:21.650Z,100030.31
2023-01-13T14:53:48.635Z,100032.67
2023-01-13T14:56:44.830Z,100031.09
2023-01-13T14:59:40.034Z,100025.80
2023-01-13T15:02:25.474Z,100024.77
2023-01-13T15:04:58.728Z,100030.17
2023-01-13T15:07:32.058Z,100027.76
2023-01-13T15:10:00.507Z,100030.88
2023-01-13T15:12:40.864Z,100026.42
2023-01-13T15:15:25.213Z,100022.28
2023-01-13T15:17:52.403Z,100021.76
2023-01-13T15:20:21.417Z,100027.94
2023-01-13T15:22:48.232Z,100028.09
2023-01-13T15:25:15.268Z,100022.04
2023-01-13T15:27:43.317Z,100013.02
2023-01-13T15:30:17.822Z,100013.10
2023-01-13T15:32:44.530Z,100011.17
2023-01-13T15:35:15.319Z,100011.70
2023-01-13T15:37:42.792Z,100011.52
2023-01-13T15:40:32.943Z,100019.42
2023-01-13T15:43:18.327Z,100022.52
2023-01-13T15:46:03.578Z,100018.91
2023-01-13T15:48:33.166Z,100018.26
2023-01-13T15:51:02.527Z,100021.80
2023-01-13T15:53:30.326Z,100018.23
2023-01-13T15:55:57.660Z,100016.79
2023-01-13T16:00:43.009Z,100019.80
2023-01-13T16:03:13.839Z,100023.23
2023-01-13T16:08:44.410Z,100021.52
2023-01-13T16:11:11.820Z,100020.48
2023-01-13T16:13:38.647Z,100016.31
2023-01-13T16:16:15.149Z,100015.56
2023-01-13T16:18:41.844Z,100015.94
2023-01-13T16:21:11.915Z,100014.14
2023-01-13T16:24:33.464Z,100020.64
2023-01-13T16:27:00.169Z,100020.34
2023-01-13T16:29:26.923Z,100024.46
2023-01-13T16:31:53.665Z,100028.08
2023-01-13T16:34:20.482Z,100024.45
2023-01-13T16:36:47.817Z,100018.77
2023-01-13T16:39:21.601Z,100015.67
2023-01-13T16:41:48.935Z,100014.64
2023-01-13T16:44:15.634Z,100014.67
2023-01-13T16:46:44.570Z,100008.42
2023-01-13T16:49:12.993Z,100010.89
2023-01-13T16:51:39.828Z,100008.52
2023-01-13T16:54:06.753Z,100009.17
2023-01-13T16:56:34.947Z,100015.39
2023-01-13T16:59:10.504Z,100017.12
2023-01-13T17:01:38.704Z,100014.00
2023-01-13T17:04:05.598Z,100017.08
2023-01-13T17:06:43.496Z,100022.60
2023-01-13T17:09:18.397Z,100020.71
2023-01-13T17:11:45.116Z,100025.34
2023-01-13T17:14:19.274Z,100034.73
2023-01-13T17:16:47.070Z,100033.63
2023-01-13T17:19:14.140Z,100027.39
2023-01-13T17:21:40.968Z,100028.77
2023-01-13T17:24:08.175Z,100019.24
2023-01-13T17:26:38.742Z,100020.80
2023-01-13T17:29:07.261Z,100020.98
2023-01-13T17:31:34.866Z,100021.52
2023-01-13T17:34:02.363Z,100018.50
2023-01-13T17:36:29.232Z,100023.85
2023-01-13T17:38:56.142Z,100032.27
2023-01-13T17:41:23.780Z,100032.08
2023-01-13T17:43:50.784Z,100023.14
2023-01-13T17:46:18.655Z,100021.11
2023-01-13T17:48:46.276Z,100018.70
2023-01-13T17:51:13.811Z,100014.73
2023-01-13T17:53:40.802Z,100011.77
2023-01-13T17:56:08.678Z,100017.05
2023-01-13T18:00:31.402Z,100016.65
2023-01-13T18:02:58.142Z,100018.30
2023-01-13T18:05:24.943Z,100018.00
2023-01-13T18:07:51.826Z,100010.96
2023-01-13T18:10:18.763Z,100012.59
2023-01-13T18:12:45.480Z,100005.35
2023-01-13T18:15:12.186Z,100005.73
2023-01-13T18:17:38.919Z,100003.33
2023-01-13T18:20:24.976Z,99999.02
2023-01-13T18:23:10.533Z,99999.52
2023-01-13T18:25:58.079Z,99996.40
2023-01-13T18:28:24.916Z,99990.56
2023-01-13T18:30:51.624Z,99990.44
2023-01-13T18:33:18.336Z,99998.40
2023-01-13T18:35:45.128Z,99991.50
2023-01-13T18:38:15.488Z,99991.34
2023-01-13T18:40:44.359Z,99987.02
2023-01-13T18:43:11.145Z,99986.17
2023-01-13T18:45:37.865Z,99981.57
2023-01-13T18:48:05.191Z,99993.81
2023-01-13T18:50:32.244Z,99991.77
2023-01-13T18:52:58.931Z,99993.72
2023-01-13T18:55:25.867Z,99994.83
2023-01-13T18:57:53.664Z,99994.85
2023-01-13T19:00:21.574Z,99994.84
2023-01-13T19:02:50.804Z,99991.55
2023-01-13T19:05:17.563Z,99988.61
2023-01-13T19:07:50.510Z,99994.95
2023-01-13T19:10:17.878Z,100001.80
2023-01-13T19:12:44.607Z,99998.39
2023-01-13T19:15:11.567Z,99996.24
2023-01-13T19:17:38.282Z,100006.34
2023-01-13T19:20:05.690Z,100007.17
2023-01-13T19:22:33.693Z,100007.70
2023-01-13T19:25:01.258Z,100004.77
2023-01-13T19:27:28.185Z,100009.72
2023-01-13T19:29:58.165Z,100010.58
2023-01-13T19:32:25.315Z,100014.77
2023-01-13T19:34:53.247Z,100012.00
2023-01-13T19:37:20.078Z,100011.46
2023-01-13T19:39:46.917Z,100011.66
2023-01-13T19:42:32.626Z,100015.48
2023-01-13T19:45:18.372Z,100009.85
2023-01-13T19:47:45.820Z,100014.31
2023-01-13T19:50:13.686Z,100007.24
2023-01-13T19:52:41.818Z,100008.27
2023-01-13T19:55:09.795Z,100005.30
2023-01-13T19:57:37.837Z,100001.33
2023-01-13T20:00:06.854Z,100000.69
2023-01-13T20:02:44.867Z,99999.70
2023-01-13T20:05:12.962Z,99998.33
2023-01-13T20:07:39.769Z,99996.74
2023-01-13T20:10:07.476Z,99996.39
2023-01-13T20:12:34.197Z,99997.37
2023-01-13T20:15:00.889Z,99998.17
2023-01-13T20:17:27.657Z,99997.80
2023-01-13T20:19:54.825Z,99999.67
2023-01-13T20:22:21.630Z,99997.95
2023-01-13T20:24:52.120Z,100000.21
2023-01-13T20:27:19.145Z,99998.83
2023-01-13T20:29:45.828Z,100000.39
2023-01-13T20:32:12.627Z,99996.94
2023-01-13T20:34:39.333Z,100000.90
2023-01-13T20:37:06.056Z,100001.09
2023-01-13T20:39:33.945Z,100006.95
2023-01-13T20:42:19.602Z,100002.58
2023-01-13T20:44:47.247Z,100004.08
2023-01-13T20:47:14.446Z,100002.88
2023-01-13T20:49:41.597Z,100006.86
2023-01-13T20:52:11.367Z,100002.19
2023-01-13T20:54:38.875Z,100009.05
2023-01-13T20:58:11.448Z,100015.52
2023-01-13T21:00:38.217Z,100024.03
2023-01-13T21:03:05.030Z,100016.34
2023-01-13T21:05:33.303Z,100017.60
2023-01-13T21:08:00.019Z,100020.59
2023-01-13T21:10:26.825Z,100024.80
2023-01-13T21:13:12.607Z,100020.05
2023-01-13T21:15:39.290Z,100025.95
2023-01-13T21:18:24.942Z,100021.36
2023-01-13T21:21:11.448Z,100017.59
2023-01-13T21:23:41.017Z,100018.48
2023-01-13T21:26:08.429Z,100022.56
2023-01-13T21:28:36.666Z,100016.66
2023-01-13T21:31:07.460Z,100001.66
2023-01-13T21:33:34.695Z,100006.49
2023-01-13T21:36:05.946Z,99999.21
2023-01-13T21:38:33.235Z,100003.69
2023-01-13T21:41:07.749Z,100003.14
2023-01-13T21:43:54.334Z,100001.39
2023-01-13T21:46:40.780Z,99998.48
2023-01-13T21:49:07.521Z,99999.70
2023-01-13T21:51:34.805Z,100000.60
2023-01-13T21:54:01.818Z,99999.73
2023-01-13T21:56:28.558Z,100002.48
2023-01-13T21:58:58.157Z,100005.95
2023-01-13T22:01:24.995Z,100009.23
2023-01-13T22:04:10.676Z,100007.14
2023-01-13T22:06:37.372Z,100009.52
